createdAt,value
2022-09-23T00:01:00.658Z,100.00
2022-09-23T00:03:30.140Z,100.00
2022-09-23T00:06:02.000Z,100.00
2022-09-23T00:08:29.872Z,100.00
2022-09-23T00:10:57.925Z,100.00
2022-09-23T00:13:26.767Z,100.00
2022-09-23T00:15:54.235Z,100.00
2022-09-23T00:18:21.801Z,100.00
2022-09-23T00:20:49.445Z,100.00
2022-09-23T00:23:16.958Z,100.00
2022-09-23T00:25:44.453Z,100.00
2022-09-23T00:28:11.943Z,100.00
2022-09-23T00:30:44.691Z,100.00
2022-09-23T00:33:12.208Z,100.00
2022-09-23T00:35:39.690Z,100.00
2022-09-23T00:38:07.136Z,100.00
2022-09-23T00:40:36.210Z,100.00
2022-09-23T00:43:03.694Z,100.00
2022-09-23T00:45:32.293Z,100.00
2022-09-23T00:48:04.999Z,100.00
2022-09-23T00:50:36.062Z,100.00
2022-09-23T00:53:07.869Z,100.00
2022-09-23T00:55:39.331Z,100.00
2022-09-23T00:58:11.039Z,100.00
2022-09-23T01:00:38.942Z,100.00
2022-09-23T01:03:09.382Z,100.00
2022-09-23T01:05:38.520Z,100.00
2022-09-23T01:08:06.584Z,100.00
2022-09-23T01:10:41.949Z,100.00
2022-09-23T01:13:18.252Z,100.00
2022-09-23T01:15:50.292Z,100.00
2022-09-23T01:18:29.661Z,100.00
2022-09-23T01:21:03.502Z,100.00
2022-09-23T01:23:55.108Z,100.00
2022-09-23T01:26:42.839Z,100.00
2022-09-23T01:29:29.782Z,100.00
2022-09-23T01:32:03.037Z,100.00
2022-09-23T01:34:36.935Z,100.00
2022-09-23T01:37:12.022Z,100.00
2022-09-23T01:39:45.359Z,100.00
2022-09-23T01:42:18.639Z,100.00
2022-09-23T01:44:49.538Z,100.00
2022-09-23T01:47:23.707Z,100.00
2022-09-23T01:49:56.016Z,100.00
2022-09-23T01:52:29.287Z,100.00
2022-09-23T01:55:02.104Z,100.00
2022-09-23T01:57:33.282Z,100.00
2022-09-23T02:00:11.149Z,100.00
2022-09-23T02:02:49.855Z,100.00
2022-09-23T02:05:23.008Z,100.00
2022-09-23T02:07:54.277Z,100.00
2022-09-23T02:10:26.358Z,100.00
2022-09-23T02:12:59.095Z,100.00
2022-09-23T02:15:33.716Z,100.00
2022-09-23T02:18:08.682Z,100.00
2022-09-23T02:20:39.718Z,100.00
2022-09-23T02:23:13.036Z,100.00
2022-09-23T02:25:55.983Z,100.00
2022-09-23T02:28:31.908Z,100.00
2022-09-23T02:31:08.518Z,100.00
2022-09-23T02:33:40.216Z,100.00
2022-09-23T02:36:13.435Z,100.00
2022-09-23T02:38:46.351Z,100.00
2022-09-23T02:41:18.307Z,100.00
2022-09-23T02:43:52.227Z,100.00
2022-09-23T02:46:20.295Z,100.00
2022-09-23T02:48:55.041Z,100.00
2022-09-23T02:51:25.297Z,100.00
2022-09-23T02:53:55.688Z,100.00
2022-09-23T02:56:23.362Z,100.00
2022-09-23T02:58:54.057Z,100.00
2022-09-23T03:01:34.988Z,100.00
2022-09-23T03:04:14.703Z,100.00
2022-09-23T03:06:51.912Z,100.00
2022-09-23T03:09:23.283Z,100.00
2022-09-23T03:11:56.831Z,100.00
2022-09-23T03:14:31.679Z,100.00
2022-09-23T03:17:04.201Z,100.00
2022-09-23T03:19:41.358Z,100.00
2022-09-23T03:22:13.337Z,100.00
2022-09-23T03:24:44.758Z,100.00
2022-09-23T03:27:17.732Z,100.00
2022-09-23T03:29:47.656Z,100.00
2022-09-23T03:32:18.255Z,100.00
2022-09-23T03:34:50.337Z,100.00
2022-09-23T03:37:22.564Z,100.00
2022-09-23T03:39:55.068Z,100.00
2022-09-23T03:42:25.935Z,100.00
2022-09-23T03:44:56.367Z,100.00
2022-09-23T03:47:26.261Z,100.00
2022-09-23T03:49:56.700Z,100.00
2022-09-23T03:52:25.544Z,100.00
2022-09-23T03:54:53.439Z,100.00
2022-09-23T03:57:22.433Z,100.00
2022-09-23T03:59:50.473Z,100.00
2022-09-23T04:02:18.814Z,100.00
2022-09-23T04:04:46.900Z,100.00
2022-09-23T04:07:15.992Z,100.00
2022-09-23T04:09:43.637Z,100.00
2022-09-23T04:12:14.692Z,100.00
2022-09-23T04:14:42.259Z,100.00
2022-09-23T04:17:10.190Z,100.00
2022-09-23T04:19:37.971Z,100.00
2022-09-23T04:22:06.117Z,100.00
2022-09-23T04:24:35.385Z,100.00
2022-09-23T04:27:03.297Z,100.00
2022-09-23T04:29:30.859Z,100.00
2022-09-23T04:31:58.712Z,100.00
2022-09-23T04:34:26.456Z,100.00
2022-09-23T04:36:53.946Z,100.00
2022-09-23T04:39:21.439Z,100.00
2022-09-23T04:41:50.262Z,100.00
2022-09-23T04:44:17.756Z,100.00
2022-09-23T04:46:48.239Z,100.00
2022-09-23T04:49:16.573Z,100.00
2022-09-23T04:51:44.091Z,100.00
2022-09-23T04:54:12.678Z,100.00
2022-09-23T04:56:40.829Z,100.00
2022-09-23T04:59:09.822Z,100.00
2022-09-23T05:01:38.339Z,100.00
2022-09-23T05:04:08.542Z,100.00
2022-09-23T05:06:36.932Z,100.00
2022-09-23T05:09:07.468Z,100.00
2022-09-23T05:11:35.663Z,100.00
2022-09-23T05:14:03.346Z,100.00
2022-09-23T05:16:32.254Z,100.00
2022-09-23T05:18:59.951Z,100.00
2022-09-23T05:21:28.865Z,100.00
2022-09-23T05:24:00.283Z,100.00
2022-09-23T05:26:29.411Z,100.00
2022-09-23T05:28:57.240Z,100.00
2022-09-23T05:31:26.289Z,100.00
2022-09-23T05:33:57.901Z,100.00
2022-09-23T05:36:26.104Z,100.00
2022-09-23T05:38:54.593Z,100.00
2022-09-23T05:41:23.391Z,100.00
2022-09-23T05:43:51.532Z,100.00
2022-09-23T05:46:20.873Z,100.00
2022-09-23T05:48:49.009Z,100.00
2022-09-23T05:51:20.105Z,100.00
2022-09-23T05:53:48.747Z,100.00
2022-09-23T05:56:18.238Z,100.00
2022-09-23T05:58:46.120Z,100.00
2022-09-23T06:01:15.654Z,100.00
2022-09-23T06:03:43.130Z,100.00
2022-09-23T06:06:14.461Z,94.03
2022-09-23T06:08:43.616Z,100.00
2022-09-23T06:11:12.287Z,100.00
2022-09-23T06:13:40.375Z,85.92
2022-09-23T06:16:09.074Z,75.19
2022-09-23T06:18:36.819Z,82.52
2022-09-23T06:21:05.244Z,86.75
2022-09-23T06:23:33.074Z,63.71
2022-09-23T06:26:02.443Z,56.13
2022-09-23T06:28:32.157Z,64.63
2022-09-23T06:31:00.388Z,66.78
2022-09-23T06:33:35.854Z,63.27
2022-09-23T06:36:06.706Z,58.01
2022-09-23T06:38:34.543Z,59.61
2022-09-23T06:41:04.057Z,47.05
2022-09-23T06:43:32.193Z,47.00
2022-09-23T06:46:00.997Z,50.91
2022-09-23T06:48:29.482Z,54.29
2022-09-23T06:51:02.364Z,53.67
2022-09-23T06:53:32.107Z,44.88
2022-09-23T06:56:00.485Z,46.88
2022-09-23T06:58:29.788Z,47.02
2022-09-23T07:01:02.325Z,44.79
2022-09-23T07:03:30.877Z,40.74
2022-09-23T07:05:59.135Z,41.47
2022-09-23T07:08:28.095Z,38.18
2022-09-23T07:10:56.661Z,39.20
2022-09-23T07:13:24.613Z,38.64
2022-09-23T07:15:55.024Z,37.87
2022-09-23T07:18:24.045Z,37.22
2022-09-23T07:20:51.951Z,35.17
2022-09-23T07:23:19.649Z,35.08
2022-09-23T07:25:50.267Z,35.51
2022-09-23T07:28:18.889Z,36.54
2022-09-23T07:30:57.177Z,38.73
2022-09-23T07:33:32.489Z,39.12
2022-09-23T07:36:00.873Z,40.30
2022-09-23T07:38:30.261Z,41.54
2022-09-23T07:41:02.708Z,41.95
2022-09-23T07:43:31.806Z,43.00
2022-09-23T07:46:02.172Z,43.89
2022-09-23T07:48:34.457Z,42.96
2022-09-23T07:51:07.616Z,44.88
2022-09-23T07:53:35.681Z,45.44
2022-09-23T07:56:06.447Z,45.49
2022-09-23T07:58:35.554Z,44.87
2022-09-23T08:01:05.177Z,45.28
2022-09-23T08:03:35.000Z,44.73
2022-09-23T08:06:10.441Z,43.53
2022-09-23T08:08:40.463Z,44.94
2022-09-23T08:11:11.133Z,45.69
2022-09-23T08:13:38.994Z,44.98
2022-09-23T08:16:07.255Z,45.19
2022-09-23T08:18:36.606Z,43.75
2022-09-23T08:21:04.713Z,42.62
2022-09-23T08:23:33.550Z,43.44
2022-09-23T08:26:03.080Z,42.68
2022-09-23T08:28:31.958Z,43.53
2022-09-23T08:30:59.473Z,47.02
2022-09-23T08:33:27.097Z,45.56
2022-09-23T08:36:00.537Z,45.04
2022-09-23T08:38:28.674Z,45.22
2022-09-23T08:41:06.370Z,44.87
2022-09-23T08:43:36.857Z,44.00
2022-09-23T08:46:07.267Z,43.58
2022-09-23T08:48:38.424Z,44.77
2022-09-23T08:51:13.576Z,45.93
2022-09-23T08:53:42.195Z,46.03
2022-09-23T08:56:15.716Z,46.22
2022-09-23T08:58:52.820Z,47.32
2022-09-23T09:01:26.412Z,45.58
2022-09-23T09:03:55.972Z,45.90
2022-09-23T09:06:30.898Z,45.11
2022-09-23T09:09:02.199Z,44.73
2022-09-23T09:11:36.814Z,45.50
2022-09-23T09:14:15.289Z,44.79
2022-09-23T09:16:59.947Z,43.79
2022-09-23T09:19:51.867Z,43.01
2022-09-23T09:22:25.985Z,41.69
2022-09-23T09:24:57.375Z,43.61
2022-09-23T09:27:25.080Z,44.71
2022-09-23T09:29:56.401Z,46.17
2022-09-23T09:32:38.160Z,47.64
2022-09-23T09:35:10.224Z,48.62
2022-09-23T09:37:46.772Z,47.13
2022-09-23T09:40:16.279Z,45.35
2022-09-23T09:42:48.287Z,45.89
2022-09-23T09:45:24.079Z,43.39
2022-09-23T09:48:00.897Z,42.61
2022-09-23T09:50:47.065Z,42.48
2022-09-23T09:53:21.766Z,43.73
2022-09-23T09:56:04.710Z,43.05
2022-09-23T09:58:43.602Z,42.29
2022-09-23T10:01:19.537Z,41.44
2022-09-23T10:03:47.799Z,42.09
2022-09-23T10:06:19.356Z,41.71
2022-09-23T10:09:16.864Z,41.13
2022-09-23T10:12:03.772Z,41.62
2022-09-23T10:14:31.459Z,40.41
2022-09-23T10:17:05.322Z,40.34
2022-09-23T10:19:35.354Z,40.66
2022-09-23T10:22:06.232Z,40.78
2022-09-23T10:24:36.567Z,40.82
2022-09-23T10:27:08.543Z,41.57
2022-09-23T10:29:40.697Z,40.71
2022-09-23T10:32:27.346Z,40.56
2022-09-23T10:34:58.048Z,40.35
2022-09-23T10:37:38.418Z,40.05
2022-09-23T10:40:44.941Z,39.06
2022-09-23T10:43:39.067Z,39.98
2022-09-23T10:46:27.293Z,40.22
2022-09-23T10:49:12.207Z,39.83
2022-09-23T10:51:50.253Z,40.06
2022-09-23T10:54:27.292Z,39.16
2022-09-23T10:56:59.738Z,38.43
2022-09-23T10:59:43.481Z,39.03
2022-09-23T11:02:35.789Z,36.82
2022-09-23T11:05:27.245Z,37.53
2022-09-23T11:08:06.163Z,37.22
2022-09-23T11:10:52.038Z,38.05
2022-09-23T11:13:35.555Z,36.04
2022-09-23T11:16:12.345Z,36.44
2022-09-23T11:19:00.277Z,35.75
2022-09-23T11:21:44.143Z,36.45
2022-09-23T11:24:39.249Z,36.98
2022-09-23T11:27:20.124Z,36.87
2022-09-23T11:30:01.704Z,37.94
2022-09-23T11:32:46.996Z,38.17
2022-09-23T11:35:20.429Z,38.61
2022-09-23T11:37:52.335Z,38.69
2022-09-23T11:40:24.454Z,37.03
2022-09-23T11:42:58.104Z,37.63
2022-09-23T11:45:31.900Z,38.05
2022-09-23T11:48:04.187Z,37.94
2022-09-23T11:50:37.337Z,38.21
2022-09-23T11:53:09.796Z,37.53
2022-09-23T11:55:54.599Z,37.37
2022-09-23T11:58:27.118Z,38.23
2022-09-23T12:01:02.027Z,38.22
2022-09-23T12:03:44.429Z,39.26
2022-09-23T12:06:16.010Z,39.63
2022-09-23T12:08:43.539Z,39.01
2022-09-23T12:11:26.007Z,39.71
2022-09-23T12:14:02.939Z,39.95
2022-09-23T12:16:58.991Z,40.27
2022-09-23T12:20:10.287Z,39.19
2022-09-23T12:22:52.651Z,38.86
2022-09-23T12:25:36.630Z,38.51
2022-09-23T12:28:07.944Z,36.91
2022-09-23T12:30:38.141Z,37.58
2022-09-23T12:33:17.710Z,37.79
2022-09-23T12:35:47.072Z,38.30
2022-09-23T12:38:19.306Z,37.36
2022-09-23T12:40:47.558Z,37.87
2022-09-23T12:43:21.018Z,36.59
2022-09-23T12:45:49.192Z,37.78
2022-09-23T12:48:45.035Z,35.21
2022-09-23T12:51:18.618Z,36.29
2022-09-23T12:53:58.272Z,36.43
2022-09-23T12:56:29.736Z,36.89
2022-09-23T12:59:21.631Z,36.44
2022-09-23T13:01:49.248Z,36.70
2022-09-23T13:04:52.049Z,35.91
2022-09-23T13:07:24.782Z,35.02
2022-09-23T13:09:56.518Z,35.92
2022-09-23T13:12:29.390Z,35.95
2022-09-23T13:15:00.649Z,35.51
2022-09-23T13:17:33.387Z,33.13
2022-09-23T13:20:27.337Z,33.66
2022-09-23T13:23:16.824Z,35.77
2022-09-23T13:25:44.876Z,33.83
2022-09-23T13:28:27.156Z,33.78
2022-09-23T13:30:55.220Z,34.21
2022-09-23T13:33:29.611Z,35.59
2022-09-23T13:36:04.049Z,35.59
2022-09-23T13:38:33.937Z,34.35
2022-09-23T13:41:04.617Z,33.57
2022-09-23T13:43:40.968Z,33.05
2022-09-23T13:46:13.915Z,33.75
2022-09-23T13:48:45.369Z,32.98
2022-09-23T13:51:21.901Z,35.25
2022-09-23T13:53:54.520Z,35.26
2022-09-23T13:56:23.168Z,35.83
2022-09-23T13:58:50.742Z,35.95
2022-09-23T14:01:24.210Z,35.74
2022-09-23T14:03:52.238Z,35.81
2022-09-23T14:06:21.175Z,36.45
2022-09-23T14:08:50.688Z,37.60
2022-09-23T14:11:20.455Z,36.39
2022-09-23T14:13:50.923Z,37.53
2022-09-23T14:16:19.568Z,36.39
2022-09-23T14:18:49.512Z,34.02
2022-09-23T14:21:30.269Z,33.65
2022-09-23T14:23:57.863Z,33.02
2022-09-23T14:26:26.985Z,31.18
2022-09-23T14:28:55.003Z,31.08
2022-09-23T14:31:24.034Z,31.86
2022-09-23T14:33:51.724Z,31.85
2022-09-23T14:36:36.550Z,32.56
2022-09-23T14:39:07.993Z,33.31
2022-09-23T14:41:39.118Z,34.24
2022-09-23T14:44:08.843Z,34.21
2022-09-23T14:46:38.923Z,33.11
2022-09-23T14:49:16.590Z,33.05
2022-09-23T14:51:50.320Z,33.53
2022-09-23T14:54:33.592Z,32.41
2022-09-23T14:57:02.235Z,31.68
2022-09-23T14:59:35.588Z,31.75
2022-09-23T15:02:03.468Z,33.13
2022-09-23T15:04:34.880Z,35.09
2022-09-23T15:07:16.533Z,33.80
2022-09-23T15:09:46.457Z,33.76
2022-09-23T15:12:16.185Z,34.40
2022-09-23T15:14:46.846Z,34.46
2022-09-23T15:17:32.493Z,35.36
2022-09-23T15:20:03.320Z,36.12
2022-09-23T15:22:30.807Z,37.27
2022-09-23T15:25:17.078Z,37.32
2022-09-23T15:27:57.521Z,36.90
2022-09-23T15:30:25.086Z,38.08
2022-09-23T15:32:52.930Z,38.50
2022-09-23T15:35:22.555Z,38.34
2022-09-23T15:37:51.451Z,38.53
2022-09-23T15:40:23.876Z,37.67
2022-09-23T15:42:53.327Z,38.27
2022-09-23T15:45:27.185Z,38.46
2022-09-23T15:47:55.714Z,39.01
2022-09-23T15:50:23.267Z,40.20
2022-09-23T15:52:50.757Z,39.75
2022-09-23T15:55:22.874Z,40.60
2022-09-23T15:57:50.643Z,39.25
2022-09-23T16:00:18.430Z,40.14
2022-09-23T16:02:48.516Z,40.57
2022-09-23T16:05:20.615Z,40.47
2022-09-23T16:07:48.246Z,40.53
2022-09-23T16:10:16.077Z,40.31
2022-09-23T16:12:45.055Z,39.43
2022-09-23T16:15:15.892Z,39.25
2022-09-23T16:17:44.229Z,39.76
2022-09-23T16:20:12.225Z,42.38
2022-09-23T16:22:40.074Z,43.11
2022-09-23T16:25:12.281Z,44.17
2022-09-23T16:27:40.746Z,45.54
2022-09-23T16:30:11.476Z,46.95
2022-09-23T16:32:39.037Z,47.23
2022-09-23T16:35:08.341Z,47.89
2022-09-23T16:37:36.095Z,48.91
2022-09-23T16:40:04.669Z,50.63
2022-09-23T16:42:32.168Z,54.52
2022-09-23T16:44:59.654Z,56.82
2022-09-23T16:47:28.785Z,61.22
2022-09-23T16:49:56.270Z,63.27
2022-09-23T16:52:23.764Z,65.80
2022-09-23T16:54:51.232Z,67.62
2022-09-23T16:57:18.750Z,70.43
2022-09-23T17:00:03.862Z,72.16
2022-09-23T17:03:04.676Z,71.76
2022-09-23T17:05:32.164Z,70.62
2022-09-23T17:08:00.111Z,72.84
2022-09-23T17:10:27.592Z,72.00
2022-09-23T17:12:55.124Z,72.80
2022-09-23T17:15:22.708Z,75.87
2022-09-23T17:17:51.532Z,83.60
2022-09-23T17:20:20.033Z,85.92
2022-09-23T17:22:47.519Z,88.47
2022-09-23T17:25:15.761Z,90.47
2022-09-23T17:27:43.247Z,92.42
2022-09-23T17:30:11.691Z,93.92
2022-09-23T17:32:39.169Z,96.86
2022-09-23T17:35:09.787Z,99.73
2022-09-23T17:37:37.863Z,100.00
2022-09-23T17:40:06.517Z,100.00
2022-09-23T17:42:34.388Z,100.00
2022-09-23T17:45:02.176Z,100.00
2022-09-23T17:47:32.444Z,100.00
2022-09-23T17:50:00.888Z,100.00
2022-09-23T17:52:29.674Z,100.00
2022-09-23T17:54:57.124Z,100.00
2022-09-23T17:57:24.589Z,100.00
2022-09-23T17:59:53.607Z,100.00
2022-09-23T18:02:22.492Z,100.00
2022-09-23T18:04:50.009Z,100.00
2022-09-23T18:07:17.728Z,100.00
2022-09-23T18:09:46.509Z,100.00
2022-09-23T18:12:14.692Z,100.00
2022-09-23T18:14:42.173Z,100.00
2022-09-23T18:17:09.967Z,100.00
2022-09-23T18:19:37.494Z,100.00
2022-09-23T18:22:04.948Z,100.00
2022-09-23T18:24:37.838Z,100.00
2022-09-23T18:27:07.357Z,100.00
2022-09-23T18:29:35.462Z,100.00
2022-09-23T18:32:03.722Z,100.00
2022-09-23T18:34:31.218Z,100.00
2022-09-23T18:36:58.716Z,100.00
2022-09-23T18:39:26.322Z,100.00
2022-09-23T18:41:54.801Z,100.00
2022-09-23T18:44:24.195Z,100.00
2022-09-23T18:46:51.830Z,100.00
2022-09-23T18:49:36.656Z,100.00
2022-09-23T18:52:04.180Z,100.00
2022-09-23T18:54:31.665Z,100.00
2022-09-23T18:56:59.541Z,100.00
2022-09-23T18:59:29.711Z,100.00
2022-09-23T19:01:57.848Z,100.00
2022-09-23T19:04:27.506Z,100.00
2022-09-23T19:06:56.511Z,100.00
2022-09-23T19:09:24.315Z,100.00
2022-09-23T19:11:52.584Z,100.00
2022-09-23T19:14:20.393Z,100.00
2022-09-23T19:16:50.593Z,100.00
2022-09-23T19:19:18.105Z,100.00
2022-09-23T19:21:45.804Z,100.00
2022-09-23T19:24:15.776Z,100.00
2022-09-23T19:26:44.063Z,100.00
2022-09-23T19:29:15.204Z,100.00
2022-09-23T19:31:43.391Z,100.00
2022-09-23T19:34:15.797Z,100.00
2022-09-23T19:36:44.713Z,100.00
2022-09-23T19:39:17.111Z,100.00
2022-09-23T19:41:44.634Z,100.00
2022-09-23T19:44:12.170Z,100.00
2022-09-23T19:46:42.809Z,100.00
2022-09-23T19:49:11.025Z,100.00
2022-09-23T19:51:40.139Z,100.00
2022-09-23T19:54:08.948Z,100.00
2022-09-23T19:56:38.489Z,100.00
2022-09-23T19:59:09.113Z,100.00
2022-09-23T20:01:36.732Z,100.00
2022-09-23T20:04:05.587Z,100.00
2022-09-23T20:06:34.838Z,100.00
2022-09-23T20:09:03.720Z,100.00
2022-09-23T20:11:32.382Z,100.00
2022-09-23T20:14:03.736Z,100.00
2022-09-23T20:16:34.092Z,100.00
2022-09-23T20:19:02.826Z,100.00
2022-09-23T20:21:30.656Z,100.00
2022-09-23T20:23:58.637Z,100.00
2022-09-23T20:26:45.174Z,100.00
2022-09-23T20:29:12.842Z,100.00
2022-09-23T20:31:41.321Z,100.00
2022-09-23T20:34:10.412Z,100.00
2022-09-23T20:36:39.465Z,100.00
2022-09-23T20:39:07.118Z,100.00
2022-09-23T20:41:38.285Z,100.00
2022-09-23T20:44:07.809Z,100.00
2022-09-23T20:46:35.923Z,100.00
2022-09-23T20:49:04.424Z,100.00
2022-09-23T20:51:33.779Z,100.00
2022-09-23T20:54:01.668Z,100.00
2022-09-23T20:56:29.610Z,100.00
2022-09-23T20:59:01.358Z,100.00
2022-09-23T21:01:29.152Z,100.00
2022-09-23T21:03:56.737Z,100.00
2022-09-23T21:06:26.115Z,100.00
2022-09-23T21:08:54.508Z,100.00
2022-09-23T21:11:22.754Z,100.00
2022-09-23T21:13:52.371Z,100.00
2022-09-23T21:16:22.932Z,100.00
2022-09-23T21:18:51.598Z,100.00
2022-09-23T21:21:22.067Z,100.00
2022-09-23T21:23:50.841Z,100.00
2022-09-23T21:26:20.145Z,100.00
2022-09-23T21:28:49.483Z,100.00
2022-09-23T21:31:23.838Z,100.00
2022-09-23T21:33:56.936Z,100.00
2022-09-23T21:36:24.906Z,100.00
2022-09-23T21:38:53.160Z,100.00
2022-09-23T21:41:21.217Z,100.00
2022-09-23T21:43:49.479Z,100.00
2022-09-23T21:46:19.984Z,100.00
2022-09-23T21:48:49.783Z,100.00
2022-09-23T21:51:21.376Z,100.00
2022-09-23T21:53:48.989Z,100.00
2022-09-23T21:56:20.894Z,100.00
2022-09-23T21:58:49.445Z,100.00
2022-09-23T22:01:18.887Z,100.00
2022-09-23T22:03:51.757Z,100.00
2022-09-23T22:06:22.499Z,100.00
2022-09-23T22:08:51.795Z,100.00
2022-09-23T22:11:39.663Z,100.00
2022-09-23T22:14:08.618Z,100.00
2022-09-23T22:16:36.821Z,100.00
2022-09-23T22:19:06.841Z,100.00
2022-09-23T22:21:38.009Z,100.00
2022-09-23T22:24:07.707Z,100.00
2022-09-23T22:26:38.680Z,100.00
2022-09-23T22:29:25.414Z,100.00
2022-09-23T22:32:11.127Z,100.00
2022-09-23T22:34:50.582Z,100.00
2022-09-23T22:37:23.096Z,100.00
2022-09-23T22:39:50.530Z,100.00
2022-09-23T22:42:21.088Z,100.00
2022-09-23T22:44:48.637Z,100.00
2022-09-23T22:47:17.512Z,100.00
2022-09-23T22:49:44.958Z,100.00
2022-09-23T22:52:12.517Z,100.00
2022-09-23T22:54:41.450Z,100.00
2022-09-23T22:57:09.788Z,100.00
2022-09-23T22:59:38.147Z,100.00
2022-09-23T23:02:06.513Z,100.00
2022-09-23T23:04:34.427Z,100.00
2022-09-23T23:07:03.089Z,100.00
2022-09-23T23:09:31.109Z,100.00
2022-09-23T23:11:59.877Z,100.00
2022-09-23T23:14:27.896Z,100.00
2022-09-23T23:16:55.371Z,100.00
2022-09-23T23:19:23.553Z,100.00
2022-09-23T23:21:51.729Z,100.00
2022-09-23T23:24:21.194Z,100.00
2022-09-23T23:26:49.491Z,100.00
2022-09-23T23:29:20.834Z,100.00
2022-09-23T23:31:48.934Z,100.00
2022-09-23T23:34:18.561Z,100.00
2022-09-23T23:36:47.052Z,100.00
2022-09-23T23:39:15.276Z,100.00
2022-09-23T23:41:42.879Z,100.00
2022-09-23T23:44:12.891Z,100.00
2022-09-23T23:46:41.862Z,100.00
2022-09-23T23:49:09.353Z,100.00
2022-09-23T23:51:36.806Z,100.00
2022-09-23T23:54:04.555Z,100.00
2022-09-23T23:56:32.247Z,100.00
2022-09-23T23:59:02.454Z,100.00
